Time;durP1;ratioP1;P1;durP2;ratioP2;P2;SDS_P1;SDS_P2;PMS_P1;PMS_P2;Temp;Humidity;BMP_temperature;BMP_pressure;BME280_temperature;BME280_humidity;BME280_pressure;Samples;Min_cycle;Max_cycle;Signal;HPM_P1;HPM_P2
2022/06/05 00:01:36;;;;;;;4.63;3.00;;;11.70;99.90;;;;;;5055966;28;20530;-69
2022/06/05 00:04:08;;;;;;;6.55;3.10;;;11.40;99.90;;;;;;5072647;28;20040;-69
2022/06/05 00:06:49;;;;;;;9.50;3.30;;;11.40;99.90;;;;;;5072650;28;20423;-69
2022/06/05 00:09:53;;;;;;;4.70;2.80;;;11.30;99.90;;;;;;5072588;28;20045;-69
2022/06/05 00:12:23;;;;;;;4.18;2.70;;;11.40;99.90;;;;;;5037202;28;20036;-69
2022/06/05 00:14:49;;;;;;;4.05;2.53;;;11.40;99.90;;;;;;5072444;28;20446;-69
2022/06/05 00:17:20;;;;;;;5.82;2.67;;;11.40;99.90;;;;;;5039249;28;20040;-68
2022/06/05 00:19:49;;;;;;;5.25;3.17;;;11.30;99.90;;;;;;5072556;28;20119;-69
2022/06/05 00:22:16;;;;;;;9.60;3.50;;;11.30;99.90;;;;;;5055629;28;20488;-69
2022/06/05 00:24:41;;;;;;;5.70;2.80;;;11.30;99.90;;;;;;5072070;28;20096;-69
2022/06/05 00:27:16;;;;;;;5.30;2.80;;;11.30;99.90;;;;;;5039069;28;20452;-69
2022/06/05 00:30:09;;;;;;;4.88;2.88;;;11.30;99.90;;;;;;5072187;28;20400;-69
2022/06/05 00:32:47;;;;;;;9.25;3.75;;;11.30;99.90;;;;;;5072367;28;20037;-69
2022/06/05 00:35:16;;;;;;;5.10;3.33;;;11.30;99.90;;;;;;5072060;28;20036;-69
2022/06/05 00:37:52;;;;;;;4.55;2.83;;;11.30;99.90;;;;;;5072012;28;20072;-69
2022/06/05 00:40:39;;;;;;;5.05;3.03;;;11.30;99.90;;;;;;5071960;28;20379;-68
2022/06/05 00:43:12;;;;;;;9.90;3.15;;;11.30;99.90;;;;;;5055272;28;20044;-69
2022/06/05 00:45:39;;;;;;;4.60;2.95;;;11.30;99.90;;;;;;5055217;28;20037;-69
2022/06/05 00:48:07;;;;;;;3.97;2.42;;;11.30;99.90;;;;;;5071911;28;20127;-69
2022/06/05 00:50:33;;;;;;;5.72;3.00;;;11.30;99.90;;;;;;5072133;28;20157;-69
2022/06/05 00:53:02;;;;;;;5.88;2.95;;;11.20;99.90;;;;;;5071855;28;20066;-69
2022/06/05 00:55:31;;;;;;;4.07;2.63;;;11.20;99.90;;;;;;5055029;28;20041;-69
2022/06/05 00:57:57;;;;;;;5.57;3.10;;;11.20;99.90;;;;;;5054648;28;20036;-69
2022/06/05 01:00:27;;;;;;;5.28;2.97;;;11.20;99.90;;;;;;5055284;28;20114;-69
2022/06/05 01:02:55;;;;;;;5.72;3.55;;;11.20;99.90;;;;;;5071667;28;20066;-69
2022/06/05 01:05:22;;;;;;;5.07;3.00;;;11.20;99.90;;;;;;5071668;28;20089;-69
2022/06/05 01:07:48;;;;;;;5.28;3.03;;;11.20;99.90;;;;;;5071640;28;20044;-69
2022/06/05 01:10:16;;;;;;;5.15;3.58;;;11.20;99.90;;;;;;5054883;28;20404;-69
2022/06/05 01:13:21;;;;;;;4.35;3.08;;;11.30;99.90;;;;;;5054854;28;20058;-69
2022/06/05 01:16:13;;;;;;;5.97;3.03;;;11.20;99.90;;;;;;5054882;28;20048;-68
2022/06/05 01:19:11;;;;;;;4.70;2.95;;;11.20;99.90;;;;;;5071534;28;20389;-68
2022/06/05 01:21:55;;;;;;;3.90;2.70;;;11.20;99.90;;;;;;5071605;28;20051;-68
2022/06/05 01:24:52;;;;;;;8.68;3.42;;;11.20;99.90;;;;;;5071366;28;20397;-69
2022/06/05 01:27:24;;;;;;;8.60;2.85;;;11.20;99.90;;;;;;5071428;28;20051;-68
2022/06/05 01:30:19;;;;;;;5.88;3.20;;;11.20;99.90;;;;;;5071448;28;20041;-69
2022/06/05 01:33:03;;;;;;;5.20;3.58;;;11.30;99.90;;;;;;5071406;28;20198;-68
2022/06/05 01:35:42;;;;;;;5.05;3.10;;;11.20;99.90;;;;;;5054991;28;20044;-69
2022/06/05 01:38:17;;;;;;;4.85;2.63;;;11.20;99.90;;;;;;5071362;28;20044;-69
2022/06/05 01:40:47;;;;;;;4.80;3.10;;;11.20;99.90;;;;;;5071240;28;20044;-69
2022/06/05 01:43:18;;;;;;;6.18;2.58;;;11.20;99.90;;;;;;5071265;28;20043;-68
2022/06/05 01:45:56;;;;;;;5.25;2.88;;;11.20;99.90;;;;;;5054639;28;20129;-69
2022/06/05 01:48:43;;;;;;;5.00;3.22;;;11.20;99.90;;;;;;5071289;28;20048;-68
2022/06/05 01:51:17;;;;;;;7.40;3.10;;;11.10;99.90;;;;;;5071523;28;20488;-68
2022/06/05 01:53:46;;;;;;;5.15;3.25;;;11.20;99.90;;;;;;5071121;28;20045;-68
2022/06/05 01:56:24;;;;;;;6.40;3.00;;;11.10;99.90;;;;;;5071143;28;20043;-69
2022/06/05 01:58:55;;;;;;;3.97;2.47;;;11.20;99.90;;;;;;5071385;28;20129;-69
2022/06/05 02:01:25;;;;;;;5.20;3.10;;;11.20;99.90;;;;;;5071324;28;20037;-71
2022/06/05 02:04:15;;;;;;;4.78;2.97;;;11.20;99.90;;;;;;5071103;28;20479;-71
2022/06/05 02:07:10;;;;;;;5.78;3.35;;;11.10;99.90;;;;;;5054356;28;20048;-71
2022/06/05 02:09:45;;;;;;;7.93;3.30;;;11.10;99.90;;;;;;5071258;28;20045;-71
2022/06/05 02:12:11;;;;;;;6.50;3.72;;;11.10;99.90;;;;;;5074874;28;20248;-71
2022/06/05 02:14:39;;;;;;;8.75;2.70;;;11.20;99.90;;;;;;5074704;28;20469;-71
2022/06/05 02:17:06;;;;;;;4.85;3.13;;;11.10;99.90;;;;;;5058334;28;20036;-71
2022/06/05 02:19:34;;;;;;;5.68;3.45;;;11.00;99.90;;;;;;5041447;28;20089;-71
2022/06/05 02:22:06;;;;;;;6.00;3.60;;;11.10;99.90;;;;;;5057873;28;20049;-71
2022/06/05 02:24:32;;;;;;;6.50;3.67;;;11.10;99.90;;;;;;5074507;28;20056;-69
2022/06/05 02:27:01;;;;;;;6.07;3.13;;;11.10;99.90;;;;;;5041192;28;20036;-68
2022/06/05 02:29:27;;;;;;;6.90;3.15;;;11.10;99.90;;;;;;5074516;28;20413;-69
2022/06/05 02:32:02;;;;;;;5.20;2.95;;;11.10;99.90;;;;;;5074356;28;20048;-68
2022/06/05 02:34:50;;;;;;;5.32;3.28;;;11.10;99.90;;;;;;5074571;28;20384;-68
2022/06/05 02:37:41;;;;;;;7.55;3.17;;;11.10;99.90;;;;;;5074319;28;20044;-68
2022/06/05 02:40:20;;;;;;;11.00;4.22;;;11.10;99.90;;;;;;5074297;28;20401;-68
2022/06/05 02:43:04;;;;;;;11.25;4.15;;;11.10;99.90;;;;;;5057479;28;20158;-68
2022/06/05 02:46:04;;;;;;;4.05;2.95;;;11.10;99.90;;;;;;5074215;28;20048;-69
2022/06/05 02:48:50;;;;;;;7.63;3.78;;;11.10;99.90;;;;;;5074120;28;20123;-68
2022/06/05 02:51:22;;;;;;;6.07;3.53;;;11.10;99.90;;;;;;5074141;28;20041;-68
2022/06/05 02:53:54;;;;;;;9.63;4.28;;;11.10;99.90;;;;;;5074053;28;20044;-68
2022/06/05 02:56:22;;;;;;;8.80;4.20;;;11.10;99.90;;;;;;5074222;28;20566;-68
2022/06/05 02:58:49;;;;;;;4.97;3.15;;;11.00;99.90;;;;;;5057647;28;20098;-68
2022/06/05 03:03:59;;;;;;;7.25;3.58;;;11.10;99.90;;;;;;5073821;28;20040;-69
2022/06/05 03:06:27;;;;;;;7.30;3.50;;;11.10;99.90;;;;;;5073820;28;20123;-69
2022/06/05 03:08:53;;;;;;;7.60;3.90;;;11.10;99.90;;;;;;5057031;28;20036;-68
2022/06/05 03:11:19;;;;;;;7.97;4.18;;;11.10;99.90;;;;;;5057475;28;20157;-68
2022/06/05 03:13:44;;;;;;;7.50;4.18;;;11.10;99.90;;;;;;5073955;28;20044;-68
2022/06/05 03:16:10;;;;;;;6.47;4.13;;;11.80;99.90;;;;;;5056951;28;20043;-68
2022/06/05 03:18:37;;;;;;;7.63;3.92;;;11.10;99.90;;;;;;5056859;28;20492;-68
2022/06/05 03:21:03;;;;;;;7.32;4.40;;;11.10;99.90;;;;;;5039899;28;20040;-68
2022/06/05 03:23:31;;;;;;;6.55;3.85;;;11.10;99.90;;;;;;5073353;28;20063;-68
2022/06/05 03:25:57;;;;;;;8.93;4.63;;;11.10;99.90;;;;;;5073574;28;20063;-68
2022/06/05 03:28:23;;;;;;;9.35;4.65;;;11.10;99.90;;;;;;5056904;28;20037;-68
2022/06/05 03:30:49;;;;;;;6.72;3.78;;;11.20;99.90;;;;;;5073602;28;20048;-68
2022/06/05 03:33:15;;;;;;;9.13;4.40;;;11.10;99.90;;;;;;5056771;28;20040;-68
2022/06/05 03:35:44;;;;;;;9.88;4.75;;;11.10;99.90;;;;;;5056598;28;20400;-68
2022/06/05 03:38:11;;;;;;;6.57;3.53;;;11.20;99.90;;;;;;5073188;28;20080;-68
2022/06/05 03:40:40;;;;;;;6.93;4.50;;;11.20;99.90;;;;;;5056458;28;20040;-68
2022/06/05 03:43:06;;;;;;;5.40;3.25;;;11.30;99.90;;;;;;5073044;28;20045;-68
2022/06/05 03:45:32;;;;;;;6.90;4.10;;;11.60;99.90;;;;;;5073033;28;20045;-68
2022/06/05 03:47:57;;;;;;;11.05;4.72;;;11.40;99.90;;;;;;5056956;28;20458;-68
2022/06/05 03:50:24;;;;;;;7.50;4.10;;;11.40;99.90;;;;;;5039806;28;20040;-68
2022/06/05 03:52:50;;;;;;;7.15;4.03;;;11.40;99.90;;;;;;5056265;28;20044;-68
2022/06/05 03:55:19;;;;;;;8.15;4.47;;;11.40;99.90;;;;;;5072857;28;20564;-68
2022/06/05 03:57:45;;;;;;;10.35;4.40;;;11.40;99.90;;;;;;5073141;28;20039;-68
2022/06/05 04:00:11;;;;;;;7.88;3.97;;;11.40;99.90;;;;;;5072765;28;20048;-69
2022/06/05 04:02:37;;;;;;;12.55;5.18;;;11.50;99.90;;;;;;5055950;28;20460;-68
2022/06/05 04:05:05;;;;;;;9.13;4.60;;;11.50;99.90;;;;;;5072948;28;20127;-68
2022/06/05 04:07:31;;;;;;;8.77;4.15;;;11.50;99.90;;;;;;5089493;28;20072;-69
2022/06/05 04:09:56;;;;;;;8.60;4.28;;;11.50;99.90;;;;;;5072485;28;20043;-68
2022/06/05 04:12:22;;;;;;;7.30;4.53;;;11.50;99.90;;;;;;5055979;28;20408;-69
2022/06/05 04:14:48;;;;;;;7.05;4.22;;;11.60;99.90;;;;;;5039152;28;20448;-69
2022/06/05 04:17:14;;;;;;;8.02;4.60;;;11.60;99.90;;;;;;5072803;28;20395;-68
2022/06/05 04:19:40;;;;;;;12.65;5.18;;;11.50;99.90;;;;;;5072939;28;20051;-68
2022/06/05 04:22:06;;;;;;;7.10;4.30;;;11.70;99.90;;;;;;5072222;28;20037;-69
2022/06/05 04:24:32;;;;;;;8.52;4.13;;;11.70;99.90;;;;;;5072147;28;20048;-69
2022/06/05 04:26:58;;;;;;;7.35;4.70;;;11.70;99.90;;;;;;5072184;28;20067;-68
2022/06/05 04:29:24;;;;;;;8.25;4.70;;;11.80;99.90;;;;;;5072473;28;20040;-69
2022/06/05 04:31:50;;;;;;;8.63;4.18;;;11.90;99.90;;;;;;5072110;28;20131;-68
2022/06/05 04:34:19;;;;;;;8.20;4.35;;;11.90;99.90;;;;;;5054796;28;20041;-68
2022/06/05 04:36:46;;;;;;;8.30;4.60;;;12.10;99.90;;;;;;5072026;28;20099;-68
2022/06/05 04:39:12;;;;;;;7.35;3.65;;;12.00;99.90;;;;;;5055608;28;20098;-68
2022/06/05 04:41:39;;;;;;;7.28;4.18;;;12.00;99.90;;;;;;5072097;28;20036;-69
2022/06/05 04:44:07;;;;;;;6.90;4.00;;;12.20;99.90;;;;;;5072182;28;20033;-69
2022/06/05 04:46:34;;;;;;;11.48;4.53;;;12.30;99.90;;;;;;5072238;28;20040;-68
2022/06/05 04:49:00;;;;;;;7.65;4.25;;;12.30;99.90;;;;;;5072202;28;20032;-68
2022/06/05 04:51:26;;;;;;;8.80;4.38;;;12.40;99.90;;;;;;5055321;28;20036;-69
2022/06/05 04:53:53;;;;;;;12.15;5.10;;;12.50;99.90;;;;;;5071868;28;20044;-68
2022/06/05 04:56:22;;;;;;;9.90;5.40;;;12.50;99.90;;;;;;5071888;28;20055;-69
2022/06/05 04:58:49;;;;;;;10.43;4.85;;;12.60;99.90;;;;;;5071973;28;20546;-68
2022/06/05 05:01:22;;;;;;;9.23;4.10;;;12.70;99.90;;;;;;5055006;28;20041;-68
2022/06/05 05:03:51;;;;;;;10.73;5.03;;;12.80;99.90;;;;;;5071743;28;20549;-68
2022/06/05 05:06:17;;;;;;;9.18;4.80;;;12.80;99.90;;;;;;5071772;28;20098;-68
2022/06/05 05:08:43;;;;;;;11.05;5.22;;;12.80;99.90;;;;;;5071594;28;20488;-68
2022/06/05 05:11:08;;;;;;;10.82;5.68;;;12.90;99.90;;;;;;5071651;28;20089;-69
2022/06/05 05:13:34;;;;;;;7.35;4.50;;;12.90;99.90;;;;;;5071485;28;20048;-69
2022/06/05 05:16:00;;;;;;;10.63;4.35;;;13.00;99.90;;;;;;5071844;28;20037;-68
2022/06/05 05:18:26;;;;;;;8.20;4.35;;;13.10;99.90;;;;;;5054982;28;20257;-68
2022/06/05 05:20:52;;;;;;;6.82;4.13;;;13.10;99.90;;;;;;5071493;28;20048;-68
2022/06/05 05:23:21;;;;;;;9.35;4.53;;;13.20;99.90;;;;;;5071426;28;21192;-69
2022/06/05 05:25:47;;;;;;;7.97;4.32;;;13.30;99.90;;;;;;5054698;28;20086;-68
2022/06/05 05:28:13;;;;;;;10.65;4.40;;;13.30;99.90;;;;;;5071575;28;20036;-68
2022/06/05 05:30:45;;;;;;;6.97;4.30;;;13.30;99.90;;;;;;5054780;28;20032;-69
2022/06/05 05:33:13;;;;;;;7.22;4.00;;;13.40;99.90;;;;;;5038426;28;20098;-69
2022/06/05 05:35:40;;;;;;;7.80;5.00;;;13.30;99.90;;;;;;5071365;28;20037;-69
2022/06/05 05:38:05;;;;;;;7.38;4.50;;;13.40;99.90;;;;;;5071642;28;20041;-69
2022/06/05 05:43:15;;;;;;;8.40;5.00;;;13.50;99.90;;;;;;5043245;28;20415;-68
2022/06/05 05:45:41;;;;;;;6.38;3.83;;;13.60;99.90;;;;;;5075332;28;20044;-68
2022/06/05 05:48:07;;;;;;;8.60;4.78;;;13.60;99.90;;;;;;5058936;28;20036;-69
2022/06/05 05:50:32;;;;;;;7.22;4.32;;;13.70;99.90;;;;;;5075326;28;20047;-69
2022/06/05 05:52:58;;;;;;;9.45;4.22;;;13.80;99.90;;;;;;5058797;28;20040;-69
2022/06/05 05:55:24;;;;;;;7.90;4.85;;;13.80;99.90;;;;;;5075229;28;20082;-69
2022/06/05 05:57:50;;;;;;;10.63;4.53;;;14.00;99.90;;;;;;5075590;28;20395;-68
2022/06/05 06:00:18;;;;;;;7.88;4.25;;;13.90;99.90;;;;;;5075119;28;20048;-69
2022/06/05 06:02:44;;;;;;;8.85;5.22;;;14.00;99.90;;;;;;5058213;28;20407;-68
2022/06/05 06:05:14;;;;;;;9.07;4.82;;;14.10;99.90;;;;;;5058346;28;20039;-69
2022/06/05 06:07:39;;;;;;;9.00;5.07;;;14.20;99.90;;;;;;5058320;28;20044;-69
2022/06/05 06:10:07;;;;;;;5.60;4.07;;;14.20;99.90;;;;;;5058563;28;20374;-68
2022/06/05 06:12:34;;;;;;;8.63;4.57;;;14.30;99.90;;;;;;5058705;28;20044;-68
2022/06/05 06:14:59;;;;;;;9.55;5.38;;;14.40;99.90;;;;;;5075053;28;20496;-69
2022/06/05 06:17:26;;;;;;;7.88;4.13;;;14.40;99.90;;;;;;5041783;28;20059;-69
2022/06/05 06:19:51;;;;;;;8.80;4.53;;;14.50;99.90;;;;;;5074654;28;20075;-68
2022/06/05 06:22:18;;;;;;;8.85;3.90;;;14.60;99.90;;;;;;5058041;28;20137;-69
2022/06/05 06:24:44;;;;;;;6.47;4.03;;;14.70;99.90;;;;;;5057913;28;20049;-69
2022/06/05 06:27:10;;;;;;;8.35;4.43;;;14.80;99.90;;;;;;5057902;28;20080;-69
2022/06/05 06:29:36;;;;;;;9.82;4.45;;;14.90;99.90;;;;;;5057804;28;20113;-69
2022/06/05 06:32:03;;;;;;;7.45;3.75;;;15.00;99.90;;;;;;5074352;28;20041;-69
2022/06/05 06:34:28;;;;;;;8.48;4.47;;;15.10;99.90;;;;;;5074672;28;20044;-68
2022/06/05 06:36:54;;;;;;;7.10;3.90;;;15.20;99.90;;;;;;5074358;28;20040;-70
2022/06/05 06:39:20;;;;;;;8.10;3.88;;;15.30;99.90;;;;;;5057670;28;20041;-68
2022/06/05 06:41:47;;;;;;;8.13;5.13;;;15.40;99.90;;;;;;5057512;28;20094;-68
2022/06/05 06:44:13;;;;;;;9.00;4.43;;;15.40;99.90;;;;;;5074226;28;20046;-68
2022/06/05 06:46:39;;;;;;;8.35;4.88;;;15.60;99.90;;;;;;5057853;28;20127;-67
2022/06/05 06:49:05;;;;;;;10.73;4.88;;;15.70;99.90;;;;;;5074485;28;20043;-68
2022/06/05 06:51:31;;;;;;;9.43;4.95;;;15.80;99.90;;;;;;5074195;28;20045;-68
2022/06/05 06:53:57;;;;;;;9.32;5.03;;;16.00;99.90;;;;;;5040888;28;20036;-69
2022/06/05 06:56:26;;;;;;;7.72;4.38;;;16.10;99.90;;;;;;5056737;28;20081;-68
2022/06/05 06:58:52;;;;;;;8.10;4.50;;;16.20;99.90;;;;;;5074530;28;20032;-69
2022/06/05 07:01:17;;;;;;;8.20;4.47;;;16.30;99.90;;;;;;5057655;28;20052;-68
2022/06/05 07:03:43;;;;;;;9.63;4.50;;;16.40;99.90;;;;;;5057503;28;20044;-69
2022/06/05 07:06:12;;;;;;;7.82;3.97;;;16.60;99.90;;;;;;5073788;28;20404;-68
2022/06/05 07:08:39;;;;;;;14.70;5.22;;;16.90;99.90;;;;;;5074077;28;20041;-67
2022/06/05 07:11:07;;;;;;;7.57;4.03;;;17.00;99.90;;;;;;5074165;28;20048;-67
2022/06/05 07:13:33;;;;;;;6.43;4.05;;;17.20;99.90;;;;;;5057299;28;20041;-70
2022/06/05 07:15:59;;;;;;;7.05;4.28;;;17.40;99.90;;;;;;5073935;28;20522;-69
2022/06/05 07:18:24;;;;;;;6.85;4.25;;;17.40;99.90;;;;;;5073695;28;20036;-68
2022/06/05 07:20:51;;;;;;;6.03;3.75;;;17.60;99.90;;;;;;5073466;28;20454;-67
2022/06/05 07:23:18;;;;;;;9.95;3.58;;;17.70;99.90;;;;;;5073370;28;20047;-67
2022/06/05 07:25:46;;;;;;;7.75;3.33;;;17.80;99.90;;;;;;5073818;28;20132;-68
2022/06/05 07:28:12;;;;;;;9.38;4.22;;;17.90;99.90;;;;;;5073530;28;20079;-68
2022/06/05 07:30:38;;;;;;;6.47;3.42;;;18.00;99.90;;;;;;5056993;28;20480;-69
2022/06/05 07:33:03;;;;;;;6.80;4.00;;;18.10;99.90;;;;;;5073726;28;20135;-69
2022/06/05 07:35:29;;;;;;;5.10;3.45;;;18.10;99.90;;;;;;5073648;28;20049;-69
2022/06/05 07:37:55;;;;;;;6.32;3.55;;;18.20;99.90;;;;;;5056653;28;20041;-68
2022/06/05 07:40:21;;;;;;;6.65;3.30;;;18.30;99.90;;;;;;5074336;28;20428;-69
2022/06/05 07:42:46;;;;;;;6.95;4.40;;;18.50;99.90;;;;;;5072990;28;20093;-69
2022/06/05 07:45:15;;;;;;;5.88;3.53;;;18.60;99.90;;;;;;5056572;28;20043;-69
2022/06/05 07:47:41;;;;;;;6.25;3.92;;;18.70;99.90;;;;;;5056258;28;20104;-69
2022/06/05 07:50:08;;;;;;;5.00;3.67;;;18.70;99.90;;;;;;5056707;28;20487;-70
2022/06/05 07:55:17;;;;;;;5.60;3.92;;;19.00;99.90;;;;;;5072863;28;20050;-70
2022/06/05 07:57:43;;;;;;;9.07;3.95;;;19.10;99.90;;;;;;5072834;28;20408;-70
2022/06/05 08:00:11;;;;;;;5.60;4.05;;;19.10;99.90;;;;;;5072824;28;20044;-70
2022/06/05 08:02:38;;;;;;;8.52;4.00;;;19.10;99.90;;;;;;5072706;28;20080;-69
2022/06/05 08:05:04;;;;;;;5.40;3.42;;;19.20;99.90;;;;;;5072848;28;20044;-72
2022/06/05 08:07:32;;;;;;;5.72;3.50;;;19.30;99.90;;;;;;5038482;28;20090;-71
2022/06/05 08:09:58;;;;;;;5.40;3.40;;;19.40;99.90;;;;;;5072588;28;20048;-72
2022/06/05 08:12:27;;;;;;;6.53;3.65;;;19.50;99.90;;;;;;5055943;28;20045;-70
2022/06/05 08:14:53;;;;;;;6.85;3.75;;;19.50;99.90;;;;;;5072734;28;20181;-71
2022/06/05 08:17:23;;;;;;;5.05;3.35;;;19.50;99.90;;;;;;5072440;28;20051;-71
2022/06/05 08:19:49;;;;;;;5.60;3.47;;;19.60;99.90;;;;;;5072399;28;20127;-70
2022/06/05 08:22:17;;;;;;;7.03;3.38;;;19.70;99.90;;;;;;5072399;28;20132;-70
2022/06/05 08:24:43;;;;;;;6.78;3.65;;;19.70;99.90;;;;;;5088821;28;20117;-71
2022/06/05 08:27:11;;;;;;;5.43;3.35;;;19.90;99.90;;;;;;5072260;28;20036;-71
2022/06/05 08:29:38;;;;;;;4.97;3.50;;;20.10;99.90;;;;;;5072507;28;20491;-70
2022/06/05 08:32:05;;;;;;;5.93;4.15;;;20.10;99.90;;;;;;5072182;28;20044;-70
2022/06/05 08:34:31;;;;;;;5.05;3.08;;;20.30;99.90;;;;;;5072131;28;20044;-70
2022/06/05 08:42:24;;;;;;;6.07;3.85;;;20.40;99.90;;;;;;5071954;28;20052;-71
2022/06/05 08:44:56;;;;;;;6.80;3.92;;;20.40;99.90;;;;;;5055271;28;20041;-71
2022/06/05 08:47:38;;;;;;;4.82;3.03;;;20.30;99.90;;;;;;5105866;28;20087;-71
2022/06/05 08:50:20;;;;;;;5.03;3.33;;;20.50;99.90;;;;;;5071897;28;20033;-71
2022/06/05 08:52:50;;;;;;;4.90;3.28;;;20.50;99.90;;;;;;5072083;28;20036;-70
2022/06/05 08:55:25;;;;;;;5.07;2.93;;;20.60;99.90;;;;;;5072145;28;20076;-69
2022/06/05 08:58:29;;;;;;;5.40;3.40;;;20.60;99.90;;;;;;5105699;28;20123;-69
2022/06/05 09:01:27;;;;;;;7.57;3.33;;;20.50;99.90;;;;;;5070736;28;20059;-70
2022/06/05 09:04:03;;;;;;;7.40;3.42;;;20.50;99.90;;;;;;5063637;28;20044;-72
2022/06/05 09:06:36;;;;;;;4.97;3.13;;;20.50;99.90;;;;;;5071748;28;20137;-69
2022/06/05 09:09:06;;;;;;;6.32;3.42;;;20.70;99.90;;;;;;5054998;28;20523;-72
2022/06/05 09:11:45;;;;;;;6.40;3.50;;;20.90;99.90;;;;;;5055517;28;20080;-72
2022/06/05 09:14:20;;;;;;;4.10;3.08;;;21.00;99.90;;;;;;5071645;28;20458;-71
2022/06/05 09:16:50;;;;;;;5.18;3.00;;;21.20;99.90;;;;;;5071540;28;20036;-71
2022/06/05 09:19:23;;;;;;;5.32;3.08;;;21.30;99.90;;;;;;5071570;28;20072;-70
2022/06/05 09:21:56;;;;;;;5.68;3.38;;;21.40;99.90;;;;;;5071431;28;20052;-70
2022/06/05 09:24:49;;;;;;;4.63;3.20;;;21.40;99.90;;;;;;5071579;28;20455;-71
2022/06/05 09:27:41;;;;;;;6.22;3.90;;;21.50;99.90;;;;;;5071406;28;20045;-71
2022/06/05 09:30:20;;;;;;;4.25;3.20;;;21.50;99.90;;;;;;5071481;28;20045;-71
2022/06/05 09:32:59;;;;;;;6.30;3.85;;;21.60;99.90;;;;;;5054928;28;20044;-70
2022/06/05 09:35:34;;;;;;;5.13;3.40;;;21.70;99.90;;;;;;5071329;28;20049;-71
2022/06/05 09:38:24;;;;;;;4.88;3.13;;;21.80;99.90;;;;;;5071464;28;20045;-70
2022/06/05 09:41:15;;;;;;;5.57;3.70;;;21.90;99.90;;;;;;5071296;28;20131;-70
2022/06/05 09:44:14;;;;;;;6.35;4.13;;;21.90;99.90;;;;;;5071529;28;20109;-70
2022/06/05 09:46:46;;;;;;;7.03;3.80;;;22.00;99.90;;;;;;5071210;28;20044;-69
2022/06/05 09:49:36;;;;;;;4.00;3.00;;;22.10;99.90;;;;;;5071522;28;20040;-70
2022/06/05 09:52:22;;;;;;;6.28;3.50;;;22.20;99.90;;;;;;5071249;28;20131;-70
2022/06/05 09:55:18;;;;;;;7.72;4.10;;;22.30;99.90;;;;;;5071164;28;20131;-71
2022/06/05 10:00:50;;;;;;;6.50;3.45;;;22.40;99.90;;;;;;5072396;28;20040;-70
2022/06/05 10:03:26;;;;;;;5.75;2.95;;;22.40;99.90;;;;;;5070981;28;20041;-69
2022/06/05 10:06:19;;;;;;;4.13;2.78;;;22.60;99.90;;;;;;5054371;28;20040;-68
2022/06/05 10:08:48;;;;;;;5.63;3.25;;;22.70;99.90;;;;;;5071064;28;20425;-68
2022/06/05 10:11:28;;;;;;;4.68;3.33;;;22.70;99.90;;;;;;5071066;28;20106;-69
2022/06/05 10:14:07;;;;;;;5.65;3.10;;;22.90;99.90;;;;;;5054499;28;20059;-69
2022/06/05 10:16:56;;;;;;;5.40;3.10;;;23.00;99.90;;;;;;5070987;28;20068;-70
2022/06/05 10:19:29;;;;;;;4.53;3.22;;;23.00;99.90;;;;;;5033879;28;20052;-68
2022/06/05 10:22:06;;;;;;;4.65;3.10;;;23.10;99.90;;;;;;5070909;28;20082;-69
2022/06/05 10:24:49;;;;;;;3.88;2.97;;;23.20;99.90;;;;;;5070886;28;20052;-68
2022/06/05 10:27:16;;;;;;;5.55;2.80;;;23.20;99.90;;;;;;5072164;28;20041;-68
2022/06/05 10:29:52;;;;;;;5.85;3.22;;;23.20;99.90;;;;;;5071089;28;20488;-69
2022/06/05 10:32:43;;;;;;;5.60;3.28;;;23.20;99.90;;;;;;5073577;28;20040;-68
2022/06/05 10:35:35;;;;;;;6.13;2.88;;;23.40;99.90;;;;;;5074481;28;20054;-69
2022/06/05 10:38:34;;;;;;;4.07;2.55;;;23.40;99.90;;;;;;5074298;28;20041;-70
2022/06/05 10:41:16;;;;;;;6.70;2.97;;;23.50;99.90;;;;;;5074292;28;20040;-69
2022/06/05 10:43:42;;;;;;;5.43;3.13;;;23.50;99.90;;;;;;5074506;28;20051;-69
2022/06/05 10:46:21;;;;;;;5.53;3.20;;;23.60;99.90;;;;;;5074230;28;20119;-69
2022/06/05 10:48:57;;;;;;;3.22;2.80;;;23.50;99.90;;;;;;5057757;28;20488;-68
2022/06/05 10:51:47;;;;;;;4.65;2.92;;;23.50;99.90;;;;;;5074069;28;20080;-69
2022/06/05 10:54:22;;;;;;;;;;;23.50;99.90;;;;;;5074406;28;20458;-69
2022/06/05 10:56:57;;;;;;;6.90;3.20;;;23.60;99.90;;;;;;5073930;28;19916;-69
2022/06/05 11:00:05;;;;;;;3.40;2.83;;;23.70;99.90;;;;;;5074139;28;20055;-68
2022/06/05 11:02:33;;;;;;;3.72;2.72;;;23.70;99.90;;;;;;5052735;28;20051;-68
2022/06/05 11:05:19;;;;;;;4.22;3.03;;;23.80;99.90;;;;;;5068162;28;20137;-68
2022/06/05 11:08:00;;;;;;;4.95;3.55;;;24.00;99.90;;;;;;5073965;28;20082;-68
2022/06/05 11:13:42;;;;;;;3.72;2.72;;;23.80;99.90;;;;;;5058105;28;20049;-67
2022/06/05 11:16:16;;;;;;;4.63;3.20;;;23.80;99.90;;;;;;5056934;28;20047;-70
2022/06/05 11:19:12;;;;;;;3.58;2.67;;;23.90;99.90;;;;;;5074865;28;20041;-68
2022/06/05 11:21:41;;;;;;;5.22;3.17;;;24.10;99.90;;;;;;5072761;28;20084;-69
2022/06/05 11:24:13;;;;;;;4.38;3.13;;;24.10;99.90;;;;;;5056488;28;20040;-68
2022/06/05 11:26:49;;;;;;;3.42;2.80;;;24.10;99.90;;;;;;5073406;28;20124;-69
2022/06/05 11:29:36;;;;;;;3.63;2.72;;;24.10;99.90;;;;;;5073364;28;20119;-68
2022/06/05 11:32:29;;;;;;;5.70;3.38;;;24.00;99.90;;;;;;5107262;28;20093;-69
2022/06/05 11:35:05;;;;;;;4.47;3.20;;;24.10;99.90;;;;;;5073549;28;20044;-68
2022/06/05 11:37:37;;;;;;;5.30;3.28;;;24.20;99.90;;;;;;5073314;28;20076;-68
2022/06/05 11:40:25;;;;;;;3.88;2.72;;;24.20;99.90;;;;;;5073189;28;20106;-68
2022/06/05 11:43:05;;;;;;;4.38;2.55;;;24.20;99.90;;;;;;5072809;28;20131;-70
2022/06/05 11:45:42;;;;;;;4.20;2.67;;;24.10;99.90;;;;;;5073011;28;20036;-69
2022/06/05 11:48:38;;;;;;;4.85;2.80;;;24.20;99.90;;;;;;5073031;28;20044;-68
2022/06/05 11:51:21;;;;;;;4.07;2.92;;;24.00;99.90;;;;;;5072926;28;20047;-67
2022/06/05 11:54:09;;;;;;;3.90;2.70;;;24.00;99.90;;;;;;5073052;28;20037;-67
2022/06/05 11:56:40;;;;;;;4.25;2.88;;;23.90;99.90;;;;;;5072857;28;20040;-68
2022/06/05 11:59:09;;;;;;;5.32;2.88;;;23.80;99.90;;;;;;5074359;28;20037;-68
2022/06/05 12:01:43;;;;;;;4.53;2.60;;;23.90;99.90;;;;;;5072612;28;20044;-67
2022/06/05 12:04:40;;;;;;;4.15;3.25;;;24.00;99.90;;;;;;5072993;28;20133;-68
2022/06/05 12:07:06;;;;;;;4.38;2.65;;;23.90;99.90;;;;;;5070467;28;20048;-68
2022/06/05 12:09:42;;;;;;;3.20;2.47;;;23.90;99.90;;;;;;5072663;28;20043;-68
2022/06/05 12:12:26;;;;;;;3.58;2.67;;;23.90;99.90;;;;;;5072527;28;20173;-68
2022/06/05 12:15:01;;;;;;;4.15;3.05;;;24.00;99.90;;;;;;5072427;28;20044;-68
2022/06/05 12:17:33;;;;;;;5.85;2.90;;;23.80;99.90;;;;;;5072477;28;20051;-68
2022/06/05 12:20:17;;;;;;;6.07;2.50;;;23.80;99.90;;;;;;5072453;28;20045;-67
2022/06/05 12:22:56;;;;;;;3.90;2.80;;;23.80;99.90;;;;;;5072215;28;20098;-68
2022/06/05 12:25:32;;;;;;;4.00;3.08;;;23.70;99.90;;;;;;5072110;28;20091;-67
2022/06/05 12:28:26;;;;;;;4.22;2.72;;;23.60;99.90;;;;;;5072257;28;20388;-68
2022/06/05 12:30:54;;;;;;;4.72;2.45;;;23.50;99.90;;;;;;5063800;28;20048;-67
2022/06/05 12:33:40;;;;;;;3.58;2.80;;;23.50;99.90;;;;;;5072224;28;20119;-67
2022/06/05 12:36:28;;;;;;;4.28;2.95;;;23.40;99.90;;;;;;5072231;28;20080;-67
2022/06/05 12:39:01;;;;;;;6.45;2.92;;;23.30;99.90;;;;;;5073239;28;20036;-68
2022/06/05 12:41:53;;;;;;;4.10;2.70;;;23.30;99.90;;;;;;5072179;28;20040;-69
2022/06/05 12:44:30;;;;;;;4.20;2.97;;;23.40;99.90;;;;;;5072184;28;20415;-68
2022/06/05 12:47:04;;;;;;;3.45;2.83;;;23.30;99.90;;;;;;5071904;28;20116;-68
2022/06/05 12:49:51;;;;;;;6.32;3.20;;;23.30;99.90;;;;;;5071883;28;20051;-68
2022/06/05 12:52:23;;;;;;;3.55;2.75;;;23.30;99.90;;;;;;5072198;28;20045;-68
2022/06/05 12:55:11;;;;;;;5.13;3.08;;;23.40;99.90;;;;;;5071312;28;20072;-68
2022/06/05 12:57:44;;;;;;;3.00;2.42;;;23.30;99.90;;;;;;5055086;28;20040;-69
2022/06/05 13:00:35;;;;;;;4.70;2.92;;;23.40;99.90;;;;;;5071759;28;20133;-69
2022/06/05 13:03:10;;;;;;;3.60;2.58;;;23.40;99.90;;;;;;5071621;28;20182;-69
2022/06/05 13:05:57;;;;;;;4.07;2.90;;;23.50;99.90;;;;;;5071689;28;20032;-69
2022/06/05 13:08:44;;;;;;;5.28;3.10;;;23.50;99.90;;;;;;5071709;28;20040;-69
2022/06/05 13:11:50;;;;;;;3.13;2.47;;;23.50;99.90;;;;;;5071642;28;20029;-71
2022/06/05 13:14:40;;;;;;;4.32;3.00;;;23.60;99.90;;;;;;5071175;28;20048;-70
2022/06/05 13:17:23;;;;;;;10.13;3.15;;;23.70;99.90;;;;;;5071876;28;20032;-69
2022/06/05 13:19:58;;;;;;;4.50;2.83;;;23.80;99.90;;;;;;5071781;28;20048;-69
2022/06/05 13:22:50;;;;;;;4.85;2.95;;;23.90;99.90;;;;;;5071333;28;20045;-69
2022/06/05 13:25:21;;;;;;;3.40;2.80;;;23.90;99.90;;;;;;5065611;28;20139;-69
2022/06/05 13:28:28;;;;;;;3.00;2.50;;;24.00;99.90;;;;;;5071390;28;20127;-69
2022/06/05 13:31:15;;;;;;;3.88;2.60;;;24.10;99.90;;;;;;5066043;28;20045;-69
2022/06/05 13:33:51;;;;;;;3.17;2.30;;;24.20;99.90;;;;;;5071270;28;20043;-69
2022/06/05 13:36:48;;;;;;;4.82;2.92;;;24.30;99.90;;;;;;5071562;28;20480;-69
2022/06/05 13:39:23;;;;;;;3.53;2.40;;;24.40;99.90;;;;;;5071594;28;20098;-68